sensor_id;sensor_type;location;lat;lon;timestamp;P1;durP1;ratioP1;P2;durP2;ratioP2
69779;SDS011;57052;55.602;38.096;2023-06-10T00:01:54;13.75;;;8.90;;
69779;SDS011;57052;55.602;38.096;2023-06-10T00:04:25;14.23;;;9.05;;
69779;SDS011;57052;55.602;38.096;2023-06-10T00:06:52;12.35;;;8.88;;
69779;SDS011;57052;55.602;38.096;2023-06-10T00:09:19;11.38;;;8.30;;
69779;SDS011;57052;55.602;38.096;2023-06-10T00:11:46;13.13;;;7.65;;
69779;SDS011;57052;55.602;38.096;2023-06-10T00:14:13;12.48;;;7.30;;
69779;SDS011;57052;55.602;38.096;2023-06-10T00:16:39;12.52;;;7.63;;
69779;SDS011;57052;55.602;38.096;2023-06-10T00:19:05;15.10;;;8.75;;
69779;SDS011;57052;55.602;38.096;2023-06-10T00:21:32;17.08;;;9.50;;
69779;SDS011;57052;55.602;38.096;2023-06-10T00:24:08;13.15;;;9.23;;
69779;SDS011;57052;55.602;38.096;2023-06-10T00:26:39;14.30;;;9.13;;
69779;SDS011;57052;55.602;38.096;2023-06-10T00:29:06;15.02;;;9.20;;
69779;SDS011;57052;55.602;38.096;2023-06-10T00:31:36;13.02;;;8.52;;
69779;SDS011;57052;55.602;38.096;2023-06-10T00:34:05;12.70;;;7.88;;
69779;SDS011;57052;55.602;38.096;2023-06-10T00:36:32;9.50;;;6.20;;
69779;SDS011;57052;55.602;38.096;2023-06-10T00:38:58;11.15;;;6.13;;
69779;SDS011;57052;55.602;38.096;2023-06-10T00:41:24;10.80;;;6.15;;
69779;SDS011;57052;55.602;38.096;2023-06-10T00:43:51;11.38;;;5.35;;
69779;SDS011;57052;55.602;38.096;2023-06-10T00:46:17;8.38;;;5.00;;
69779;SDS011;57052;55.602;38.096;2023-06-10T00:48:44;8.88;;;4.70;;
69779;SDS011;57052;55.602;38.096;2023-06-10T00:51:10;7.97;;;5.13;;
69779;SDS011;57052;55.602;38.096;2023-06-10T00:53:37;9.50;;;5.10;;
69779;SDS011;57052;55.602;38.096;2023-06-10T00:56:05;9.65;;;4.55;;
69779;SDS011;57052;55.602;38.096;2023-06-10T00:58:32;8.13;;;4.40;;
69779;SDS011;57052;55.602;38.096;2023-06-10T01:00:57;7.65;;;3.90;;
69779;SDS011;57052;55.602;38.096;2023-06-10T01:03:23;6.50;;;3.17;;
69779;SDS011;57052;55.602;38.096;2023-06-10T01:09:21;5.78;;;3.05;;
69779;SDS011;57052;55.602;38.096;2023-06-10T01:12:07;4.47;;;2.60;;
69779;SDS011;57052;55.602;38.096;2023-06-10T01:14:49;4.80;;;2.55;;
69779;SDS011;57052;55.602;38.096;2023-06-10T01:17:16;5.40;;;2.70;;
69779;SDS011;57052;55.602;38.096;2023-06-10T01:19:43;4.70;;;2.60;;
69779;SDS011;57052;55.602;38.096;2023-06-10T01:22:09;5.68;;;2.72;;
69779;SDS011;57052;55.602;38.096;2023-06-10T01:24:36;5.10;;;2.50;;
69779;SDS011;57052;55.602;38.096;2023-06-10T01:27:05;4.13;;;2.47;;
69779;SDS011;57052;55.602;38.096;2023-06-10T01:29:39;4.43;;;2.35;;
69779;SDS011;57052;55.602;38.096;2023-06-10T01:34:39;3.72;;;2.30;;
69779;SDS011;57052;55.602;38.096;2023-06-10T01:37:08;5.60;;;2.38;;
69779;SDS011;57052;55.602;38.096;2023-06-10T01:39:37;3.58;;;2.22;;
69779;SDS011;57052;55.602;38.096;2023-06-10T01:42:04;4.15;;;1.95;;
69779;SDS011;57052;55.602;38.096;2023-06-10T01:44:31;5.82;;;2.25;;
69779;SDS011;57052;55.602;38.096;2023-06-10T01:46:57;5.97;;;2.45;;
69779;SDS011;57052;55.602;38.096;2023-06-10T01:49:23;4.88;;;2.00;;
69779;SDS011;57052;55.602;38.096;2023-06-10T01:51:49;5.22;;;2.40;;
69779;SDS011;57052;55.602;38.096;2023-06-10T01:54:15;3.88;;;2.20;;
69779;SDS011;57052;55.602;38.096;2023-06-10T01:56:41;4.88;;;2.10;;
69779;SDS011;57052;55.602;38.096;2023-06-10T01:59:07;4.80;;;2.38;;
69779;SDS011;57052;55.602;38.096;2023-06-10T02:01:33;6.88;;;2.40;;
69779;SDS011;57052;55.602;38.096;2023-06-10T02:03:59;5.03;;;2.15;;
69779;SDS011;57052;55.602;38.096;2023-06-10T02:06:24;7.18;;;2.63;;
69779;SDS011;57052;55.602;38.096;2023-06-10T02:08:50;5.30;;;2.42;;
69779;SDS011;57052;55.602;38.096;2023-06-10T02:11:16;4.57;;;2.30;;
69779;SDS011;57052;55.602;38.096;2023-06-10T02:13:42;6.25;;;2.58;;
69779;SDS011;57052;55.602;38.096;2023-06-10T02:16:08;5.10;;;2.13;;
69779;SDS011;57052;55.602;38.096;2023-06-10T02:18:38;6.50;;;2.17;;
69779;SDS011;57052;55.602;38.096;2023-06-10T02:21:08;3.90;;;2.17;;
69779;SDS011;57052;55.602;38.096;2023-06-10T02:23:34;3.90;;;2.00;;
69779;SDS011;57052;55.602;38.096;2023-06-10T02:26:00;4.40;;;2.15;;
69779;SDS011;57052;55.602;38.096;2023-06-10T02:28:27;4.95;;;2.05;;
69779;SDS011;57052;55.602;38.096;2023-06-10T02:30:53;4.63;;;2.20;;
69779;SDS011;57052;55.602;38.096;2023-06-10T02:33:19;4.05;;;1.90;;
69779;SDS011;57052;55.602;38.096;2023-06-10T02:35:45;7.38;;;2.30;;
69779;SDS011;57052;55.602;38.096;2023-06-10T02:38:11;4.07;;;2.10;;
69779;SDS011;57052;55.602;38.096;2023-06-10T02:40:36;4.93;;;2.03;;
69779;SDS011;57052;55.602;38.096;2023-06-10T02:43:02;3.85;;;2.03;;
69779;SDS011;57052;55.602;38.096;2023-06-10T02:45:28;4.00;;;2.00;;
69779;SDS011;57052;55.602;38.096;2023-06-10T02:47:54;6.50;;;2.38;;
69779;SDS011;57052;55.602;38.096;2023-06-10T02:50:20;4.45;;;2.22;;
69779;SDS011;57052;55.602;38.096;2023-06-10T02:52:46;4.60;;;2.35;;
69779;SDS011;57052;55.602;38.096;2023-06-10T02:55:11;6.03;;;2.00;;
69779;SDS011;57052;55.602;38.096;2023-06-10T02:57:37;6.00;;;2.20;;
69779;SDS011;57052;55.602;38.096;2023-06-10T03:00:03;8.57;;;2.20;;
69779;SDS011;57052;55.602;38.096;2023-06-10T03:02:39;6.53;;;2.40;;
69779;SDS011;57052;55.602;38.096;2023-06-10T03:05:05;5.28;;;2.15;;
69779;SDS011;57052;55.602;38.096;2023-06-10T03:07:35;5.65;;;2.50;;
69779;SDS011;57052;55.602;38.096;2023-06-10T03:10:02;5.95;;;2.35;;
69779;SDS011;57052;55.602;38.096;2023-06-10T03:12:29;4.05;;;2.10;;
69779;SDS011;57052;55.602;38.096;2023-06-10T03:14:55;3.13;;;2.03;;
69779;SDS011;57052;55.602;38.096;2023-06-10T03:17:20;3.28;;;1.85;;
69779;SDS011;57052;55.602;38.096;2023-06-10T03:19:46;3.92;;;2.20;;
69779;SDS011;57052;55.602;38.096;2023-06-10T03:22:15;5.72;;;2.20;;
69779;SDS011;57052;55.602;38.096;2023-06-10T03:24:41;5.38;;;1.92;;
69779;SDS011;57052;55.602;38.096;2023-06-10T03:27:09;5.50;;;2.28;;
69779;SDS011;57052;55.602;38.096;2023-06-10T03:29:36;3.78;;;2.05;;
69779;SDS011;57052;55.602;38.096;2023-06-10T03:32:02;2.92;;;1.70;;
69779;SDS011;57052;55.602;38.096;2023-06-10T03:34:29;3.58;;;1.98;;
69779;SDS011;57052;55.602;38.096;2023-06-10T03:36:55;5.32;;;2.20;;
69779;SDS011;57052;55.602;38.096;2023-06-10T03:39:21;4.32;;;2.08;;
69779;SDS011;57052;55.602;38.096;2023-06-10T03:41:49;3.17;;;1.92;;
69779;SDS011;57052;55.602;38.096;2023-06-10T03:44:15;5.60;;;2.00;;
69779;SDS011;57052;55.602;38.096;2023-06-10T03:46:41;3.65;;;1.90;;
69779;SDS011;57052;55.602;38.096;2023-06-10T03:49:06;4.72;;;1.75;;
69779;SDS011;57052;55.602;38.096;2023-06-10T03:51:32;4.70;;;2.03;;
69779;SDS011;57052;55.602;38.096;2023-06-10T03:53:58;3.58;;;1.85;;
69779;SDS011;57052;55.602;38.096;2023-06-10T03:56:24;3.40;;;1.60;;
69779;SDS011;57052;55.602;38.096;2023-06-10T03:58:51;2.42;;;1.50;;
69779;SDS011;57052;55.602;38.096;2023-06-10T04:01:16;1.83;;;1.35;;
69779;SDS011;57052;55.602;38.096;2023-06-10T04:03:43;4.60;;;1.27;;
69779;SDS011;57052;55.602;38.096;2023-06-10T04:06:09;4.68;;;1.45;;
69779;SDS011;57052;55.602;38.096;2023-06-10T04:08:35;3.10;;;1.40;;
69779;SDS011;57052;55.602;38.096;2023-06-10T04:11:01;2.40;;;1.20;;
69779;SDS011;57052;55.602;38.096;2023-06-10T04:13:27;3.00;;;1.33;;
69779;SDS011;57052;55.602;38.096;2023-06-10T04:15:53;3.38;;;1.50;;
69779;SDS011;57052;55.602;38.096;2023-06-10T04:18:19;4.03;;;1.45;;
69779;SDS011;57052;55.602;38.096;2023-06-10T04:20:47;2.80;;;1.45;;
69779;SDS011;57052;55.602;38.096;2023-06-10T04:23:12;2.17;;;1.40;;
69779;SDS011;57052;55.602;38.096;2023-06-10T04:25:38;5.25;;;1.30;;
69779;SDS011;57052;55.602;38.096;2023-06-10T04:28:04;2.55;;;1.30;;
69779;SDS011;57052;55.602;38.096;2023-06-10T04:30:30;1.58;;;1.13;;
69779;SDS011;57052;55.602;38.096;2023-06-10T04:32:56;3.58;;;1.50;;
69779;SDS011;57052;55.602;38.096;2023-06-10T04:35:22;2.40;;;1.25;;
69779;SDS011;57052;55.602;38.096;2023-06-10T04:37:48;1.67;;;1.00;;
69779;SDS011;57052;55.602;38.096;2023-06-10T04:40:14;3.00;;;1.20;;
69779;SDS011;57052;55.602;38.096;2023-06-10T04:42:41;1.98;;;1.20;;
69779;SDS011;57052;55.602;38.096;2023-06-10T04:45:07;3.42;;;1.30;;
69779;SDS011;57052;55.602;38.096;2023-06-10T04:47:33;2.22;;;1.15;;
69779;SDS011;57052;55.602;38.096;2023-06-10T04:49:59;3.50;;;1.50;;
69779;SDS011;57052;55.602;38.096;2023-06-10T04:52:25;1.75;;;1.10;;
69779;SDS011;57052;55.602;38.096;2023-06-10T04:54:52;2.40;;;1.20;;
69779;SDS011;57052;55.602;38.096;2023-06-10T04:57:19;1.70;;;1.00;;
69779;SDS011;57052;55.602;38.096;2023-06-10T04:59:45;2.28;;;1.20;;
69779;SDS011;57052;55.602;38.096;2023-06-10T05:02:11;1.50;;;0.90;;
69779;SDS011;57052;55.602;38.096;2023-06-10T05:04:37;2.70;;;1.10;;
69779;SDS011;57052;55.602;38.096;2023-06-10T05:07:03;2.70;;;1.20;;
69779;SDS011;57052;55.602;38.096;2023-06-10T05:09:29;1.90;;;1.08;;
69779;SDS011;57052;55.602;38.096;2023-06-10T05:11:55;2.22;;;1.20;;
69779;SDS011;57052;55.602;38.096;2023-06-10T05:14:21;2.78;;;1.25;;
69779;SDS011;57052;55.602;38.096;2023-06-10T05:16:47;2.10;;;0.98;;
69779;SDS011;57052;55.602;38.096;2023-06-10T05:19:13;2.08;;;1.00;;
69779;SDS011;57052;55.602;38.096;2023-06-10T05:21:41;1.92;;;1.30;;
69779;SDS011;57052;55.602;38.096;2023-06-10T05:24:07;3.25;;;1.17;;
69779;SDS011;57052;55.602;38.096;2023-06-10T05:26:33;3.92;;;1.42;;
69779;SDS011;57052;55.602;38.096;2023-06-10T05:29:02;2.22;;;1.10;;
69779;SDS011;57052;55.602;38.096;2023-06-10T05:31:29;2.85;;;1.48;;
69779;SDS011;57052;55.602;38.096;2023-06-10T05:33:54;3.95;;;1.30;;
69779;SDS011;57052;55.602;38.096;2023-06-10T05:36:20;3.03;;;1.58;;
69779;SDS011;57052;55.602;38.096;2023-06-10T05:38:46;2.88;;;1.55;;
69779;SDS011;57052;55.602;38.096;2023-06-10T05:41:12;4.80;;;1.77;;
69779;SDS011;57052;55.602;38.096;2023-06-10T05:43:38;2.95;;;1.58;;
69779;SDS011;57052;55.602;38.096;2023-06-10T05:46:04;3.42;;;1.65;;
69779;SDS011;57052;55.602;38.096;2023-06-10T05:48:30;4.80;;;1.67;;
69779;SDS011;57052;55.602;38.096;2023-06-10T05:50:55;3.45;;;1.80;;
69779;SDS011;57052;55.602;38.096;2023-06-10T05:53:21;4.30;;;1.88;;
69779;SDS011;57052;55.602;38.096;2023-06-10T05:55:47;4.10;;;1.50;;
69779;SDS011;57052;55.602;38.096;2023-06-10T05:58:13;3.22;;;1.58;;
69779;SDS011;57052;55.602;38.096;2023-06-10T06:00:39;4.95;;;1.77;;
69779;SDS011;57052;55.602;38.096;2023-06-10T06:03:07;5.05;;;1.40;;
69779;SDS011;57052;55.602;38.096;2023-06-10T06:05:36;7.15;;;1.63;;
69779;SDS011;57052;55.602;38.096;2023-06-10T06:08:06;4.95;;;1.50;;
69779;SDS011;57052;55.602;38.096;2023-06-10T06:10:34;2.17;;;1.10;;
69779;SDS011;57052;55.602;38.096;2023-06-10T06:13:00;3.05;;;1.48;;
69779;SDS011;57052;55.602;38.096;2023-06-10T06:15:26;2.72;;;1.50;;
69779;SDS011;57052;55.602;38.096;2023-06-10T06:17:52;2.13;;;1.33;;
69779;SDS011;57052;55.602;38.096;2023-06-10T06:20:18;5.95;;;2.72;;
69779;SDS011;57052;55.602;38.096;2023-06-10T06:22:47;2.95;;;1.40;;
69779;SDS011;57052;55.602;38.096;2023-06-10T06:25:13;5.07;;;1.35;;
69779;SDS011;57052;55.602;38.096;2023-06-10T06:27:39;3.55;;;1.20;;
69779;SDS011;57052;55.602;38.096;2023-06-10T06:30:05;3.92;;;1.35;;
69779;SDS011;57052;55.602;38.096;2023-06-10T06:32:31;2.13;;;1.30;;
69779;SDS011;57052;55.602;38.096;2023-06-10T06:34:57;2.50;;;1.20;;
69779;SDS011;57052;55.602;38.096;2023-06-10T06:37:24;2.05;;;1.10;;
69779;SDS011;57052;55.602;38.096;2023-06-10T06:39:51;2.35;;;1.70;;
69779;SDS011;57052;55.602;38.096;2023-06-10T06:42:18;3.28;;;1.50;;
69779;SDS011;57052;55.602;38.096;2023-06-10T06:44:44;3.13;;;1.60;;
69779;SDS011;57052;55.602;38.096;2023-06-10T06:47:11;14.35;;;1.30;;
69779;SDS011;57052;55.602;38.096;2023-06-10T06:49:37;3.88;;;1.33;;
69779;SDS011;57052;55.602;38.096;2023-06-10T06:52:03;2.58;;;1.00;;
69779;SDS011;57052;55.602;38.096;2023-06-10T06:54:29;4.13;;;1.40;;
69779;SDS011;57052;55.602;38.096;2023-06-10T06:56:54;3.10;;;1.35;;
69779;SDS011;57052;55.602;38.096;2023-06-10T06:59:20;3.15;;;1.30;;
69779;SDS011;57052;55.602;38.096;2023-06-10T07:01:46;3.33;;;1.10;;
69779;SDS011;57052;55.602;38.096;2023-06-10T07:04:14;2.30;;;1.05;;
69779;SDS011;57052;55.602;38.096;2023-06-10T07:06:40;5.43;;;1.50;;
69779;SDS011;57052;55.602;38.096;2023-06-10T07:09:09;2.10;;;1.30;;
69779;SDS011;57052;55.602;38.096;2023-06-10T07:11:35;2.47;;;1.10;;
69779;SDS011;57052;55.602;38.096;2023-06-10T07:14:01;4.00;;;1.20;;
69779;SDS011;57052;55.602;38.096;2023-06-10T07:16:26;9.60;;;5.43;;
69779;SDS011;57052;55.602;38.096;2023-06-10T07:18:52;3.85;;;1.20;;
69779;SDS011;57052;55.602;38.096;2023-06-10T07:21:18;2.45;;;1.25;;
69779;SDS011;57052;55.602;38.096;2023-06-10T07:23:44;3.60;;;1.10;;
69779;SDS011;57052;55.602;38.096;2023-06-10T07:26:10;2.95;;;1.10;;
69779;SDS011;57052;55.602;38.096;2023-06-10T07:28:41;4.05;;;1.23;;
69779;SDS011;57052;55.602;38.096;2023-06-10T07:31:07;1.95;;;1.00;;
69779;SDS011;57052;55.602;38.096;2023-06-10T07:33:33;3.35;;;1.20;;
69779;SDS011;57052;55.602;38.096;2023-06-10T07:35:59;2.17;;;0.98;;
69779;SDS011;57052;55.602;38.096;2023-06-10T07:38:25;2.80;;;1.27;;
69779;SDS011;57052;55.602;38.096;2023-06-10T07:40:51;1.50;;;1.13;;
69779;SDS011;57052;55.602;38.096;2023-06-10T07:43:16;1.75;;;0.90;;
69779;SDS011;57052;55.602;38.096;2023-06-10T07:45:44;1.20;;;0.90;;
69779;SDS011;57052;55.602;38.096;2023-06-10T07:48:10;2.92;;;1.00;;
69779;SDS011;57052;55.602;38.096;2023-06-10T07:50:36;2.05;;;1.15;;
69779;SDS011;57052;55.602;38.096;2023-06-10T07:53:02;1.95;;;1.00;;
69779;SDS011;57052;55.602;38.096;2023-06-10T07:55:28;2.45;;;1.00;;
69779;SDS011;57052;55.602;38.096;2023-06-10T07:57:54;2.88;;;1.08;;
69779;SDS011;57052;55.602;38.096;2023-06-10T08:00:20;1.75;;;0.90;;
69779;SDS011;57052;55.602;38.096;2023-06-10T08:02:46;1.55;;;0.70;;
69779;SDS011;57052;55.602;38.096;2023-06-10T08:05:12;1.75;;;0.80;;
69779;SDS011;57052;55.602;38.096;2023-06-10T08:07:38;3.72;;;0.88;;
69779;SDS011;57052;55.602;38.096;2023-06-10T08:10:05;1.50;;;1.15;;
69779;SDS011;57052;55.602;38.096;2023-06-10T08:12:32;2.35;;;1.23;;
69779;SDS011;57052;55.602;38.096;2023-06-10T08:14:58;1.70;;;0.70;;
69779;SDS011;57052;55.602;38.096;2023-06-10T08:17:24;1.90;;;1.38;;
69779;SDS011;57052;55.602;38.096;2023-06-10T08:19:50;3.47;;;0.80;;
69779;SDS011;57052;55.602;38.096;2023-06-10T08:22:15;2.92;;;1.00;;
69779;SDS011;57052;55.602;38.096;2023-06-10T08:24:41;3.35;;;0.93;;
69779;SDS011;57052;55.602;38.096;2023-06-10T08:27:07;3.13;;;0.90;;
69779;SDS011;57052;55.602;38.096;2023-06-10T08:29:33;3.33;;;0.90;;
69779;SDS011;57052;55.602;38.096;2023-06-10T08:31:58;1.17;;;0.73;;
69779;SDS011;57052;55.602;38.096;2023-06-10T08:34:24;1.92;;;1.00;;
69779;SDS011;57052;55.602;38.096;2023-06-10T08:36:50;2.33;;;1.25;;
69779;SDS011;57052;55.602;38.096;2023-06-10T08:39:19;13.00;;;1.50;;
69779;SDS011;57052;55.602;38.096;2023-06-10T08:41:57;1.55;;;0.88;;
69779;SDS011;57052;55.602;38.096;2023-06-10T08:44:43;1.23;;;0.80;;
69779;SDS011;57052;55.602;38.096;2023-06-10T08:47:17;1.80;;;0.60;;
69779;SDS011;57052;55.602;38.096;2023-06-10T08:49:44;1.40;;;0.60;;
69779;SDS011;57052;55.602;38.096;2023-06-10T08:52:12;3.10;;;0.80;;
69779;SDS011;57052;55.602;38.096;2023-06-10T08:54:42;1.85;;;0.80;;
69779;SDS011;57052;55.602;38.096;2023-06-10T08:57:13;2.78;;;0.90;;
69779;SDS011;57052;55.602;38.096;2023-06-10T08:59:40;0.93;;;0.70;;
69779;SDS011;57052;55.602;38.096;2023-06-10T09:02:06;1.77;;;0.77;;
69779;SDS011;57052;55.602;38.096;2023-06-10T09:04:34;2.10;;;0.90;;
69779;SDS011;57052;55.602;38.096;2023-06-10T09:07:02;1.27;;;0.70;;
69779;SDS011;57052;55.602;38.096;2023-06-10T09:09:28;2.50;;;0.80;;
69779;SDS011;57052;55.602;38.096;2023-06-10T09:11:58;1.52;;;0.70;;
69779;SDS011;57052;55.602;38.096;2023-06-10T09:14:23;0.65;;;0.60;;
69779;SDS011;57052;55.602;38.096;2023-06-10T09:16:49;1.05;;;0.70;;
69779;SDS011;57052;55.602;38.096;2023-06-10T09:19:15;1.85;;;0.80;;
69779;SDS011;57052;55.602;38.096;2023-06-10T09:21:41;3.83;;;0.80;;
69779;SDS011;57052;55.602;38.096;2023-06-10T09:24:07;1.88;;;0.70;;
69779;SDS011;57052;55.602;38.096;2023-06-10T09:26:33;1.58;;;0.60;;
69779;SDS011;57052;55.602;38.096;2023-06-10T09:29:06;2.33;;;0.77;;
69779;SDS011;57052;55.602;38.096;2023-06-10T09:31:40;1.52;;;0.60;;
69779;SDS011;57052;55.602;38.096;2023-06-10T09:34:10;1.00;;;0.70;;
69779;SDS011;57052;55.602;38.096;2023-06-10T09:36:36;2.17;;;0.70;;
69779;SDS011;57052;55.602;38.096;2023-06-10T09:39:02;2.47;;;0.70;;
69779;SDS011;57052;55.602;38.096;2023-06-10T09:41:32;1.05;;;0.60;;
69779;SDS011;57052;55.602;38.096;2023-06-10T09:44:09;2.35;;;0.75;;
69779;SDS011;57052;55.602;38.096;2023-06-10T09:46:40;3.00;;;0.80;;
69779;SDS011;57052;55.602;38.096;2023-06-10T09:49:06;1.08;;;0.65;;
69779;SDS011;57052;55.602;38.096;2023-06-10T09:51:32;1.20;;;0.70;;
69779;SDS011;57052;55.602;38.096;2023-06-10T09:53:58;1.77;;;0.90;;
69779;SDS011;57052;55.602;38.096;2023-06-10T09:56:33;3.22;;;0.93;;
69779;SDS011;57052;55.602;38.096;2023-06-10T09:59:00;2.47;;;0.90;;
69779;SDS011;57052;55.602;38.096;2023-06-10T10:01:26;3.90;;;0.90;;
69779;SDS011;57052;55.602;38.096;2023-06-10T10:03:52;4.05;;;0.90;;
69779;SDS011;57052;55.602;38.096;2023-06-10T10:06:18;4.03;;;1.00;;
69779;SDS011;57052;55.602;38.096;2023-06-10T10:08:46;1.75;;;0.70;;
69779;SDS011;57052;55.602;38.096;2023-06-10T10:11:12;1.17;;;0.75;;
69779;SDS011;57052;55.602;38.096;2023-06-10T10:13:44;3.35;;;0.80;;
69779;SDS011;57052;55.602;38.096;2023-06-10T10:16:20;0.60;;;0.60;;
69779;SDS011;57052;55.602;38.096;2023-06-10T10:18:56;1.42;;;0.68;;
69779;SDS011;57052;55.602;38.096;2023-06-10T10:21:27;2.40;;;1.00;;
69779;SDS011;57052;55.602;38.096;2023-06-10T10:24:02;0.98;;;0.70;;
69779;SDS011;57052;55.602;38.096;2023-06-10T10:26:35;1.50;;;0.80;;
69779;SDS011;57052;55.602;38.096;2023-06-10T10:29:11;1.40;;;0.88;;
69779;SDS011;57052;55.602;38.096;2023-06-10T10:32:01;1.98;;;0.90;;
69779;SDS011;57052;55.602;38.096;2023-06-10T10:34:52;1.58;;;0.80;;
69779;SDS011;57052;55.602;38.096;2023-06-10T10:37:17;2.47;;;0.77;;
69779;SDS011;57052;55.602;38.096;2023-06-10T10:39:44;1.00;;;0.80;;
69779;SDS011;57052;55.602;38.096;2023-06-10T10:42:10;5.60;;;0.80;;
69779;SDS011;57052;55.602;38.096;2023-06-10T10:44:37;1.33;;;0.80;;
69779;SDS011;57052;55.602;38.096;2023-06-10T10:47:04;2.70;;;0.90;;
69779;SDS011;57052;55.602;38.096;2023-06-10T10:49:34;2.20;;;1.05;;
69779;SDS011;57052;55.602;38.096;2023-06-10T10:52:02;1.42;;;0.80;;
69779;SDS011;57052;55.602;38.096;2023-06-10T10:54:34;3.55;;;0.90;;
69779;SDS011;57052;55.602;38.096;2023-06-10T10:57:17;3.70;;;1.10;;
69779;SDS011;57052;55.602;38.096;2023-06-10T10:59:44;2.30;;;0.80;;
69779;SDS011;57052;55.602;38.096;2023-06-10T11:05:14;1.45;;;0.80;;
69779;SDS011;57052;55.602;38.096;2023-06-10T11:07:41;2.67;;;0.88;;
69779;SDS011;57052;55.602;38.096;2023-06-10T11:10:19;2.67;;;0.80;;
69779;SDS011;57052;55.602;38.096;2023-06-10T11:12:54;1.80;;;0.80;;
69779;SDS011;57052;55.602;38.096;2023-06-10T11:15:28;1.48;;;0.80;;
69779;SDS011;57052;55.602;38.096;2023-06-10T11:33:56;1.70;;;0.80;;
69779;SDS011;57052;55.602;38.096;2023-06-10T11:36:24;3.42;;;0.80;;
69779;SDS011;57052;55.602;38.096;2023-06-10T11:38:53;2.28;;;1.45;;
69779;SDS011;57052;55.602;38.096;2023-06-10T11:41:29;2.25;;;0.90;;
69779;SDS011;57052;55.602;38.096;2023-06-10T11:43:56;1.40;;;1.00;;
69779;SDS011;57052;55.602;38.096;2023-06-10T11:46:26;4.78;;;0.90;;
69779;SDS011;57052;55.602;38.096;2023-06-10T11:48:54;5.72;;;0.90;;
69779;SDS011;57052;55.602;38.096;2023-06-10T11:51:21;2.92;;;0.90;;
69779;SDS011;57052;55.602;38.096;2023-06-10T11:53:47;2.55;;;0.82;;
69779;SDS011;57052;55.602;38.096;2023-06-10T11:56:19;3.63;;;1.20;;
69779;SDS011;57052;55.602;38.096;2023-06-10T11:58:45;1.73;;;0.95;;
69779;SDS011;57052;55.602;38.096;2023-06-10T12:01:19;2.17;;;0.80;;
69779;SDS011;57052;55.602;38.096;2023-06-10T12:03:46;2.25;;;0.80;;
69779;SDS011;57052;55.602;38.096;2023-06-10T12:06:12;2.53;;;1.17;;
69779;SDS011;57052;55.602;38.096;2023-06-10T12:08:41;8.25;;;1.15;;
69779;SDS011;57052;55.602;38.096;2023-06-10T12:11:07;2.33;;;1.20;;
69779;SDS011;57052;55.602;38.096;2023-06-10T12:13:33;3.05;;;1.33;;
69779;SDS011;57052;55.602;38.096;2023-06-10T12:16:08;2.53;;;1.20;;
69779;SDS011;57052;55.602;38.096;2023-06-10T12:18:35;3.13;;;1.00;;
69779;SDS011;57052;55.602;38.096;2023-06-10T12:21:00;3.28;;;1.20;;
69779;SDS011;57052;55.602;38.096;2023-06-10T12:23:28;2.03;;;1.27;;
69779;SDS011;57052;55.602;38.096;2023-06-10T12:25:55;4.30;;;0.90;;
69779;SDS011;57052;55.602;38.096;2023-06-10T12:28:25;2.05;;;0.82;;
69779;SDS011;57052;55.602;38.096;2023-06-10T12:31:05;1.88;;;1.13;;
69779;SDS011;57052;55.602;38.096;2023-06-10T12:33:33;1.90;;;0.95;;
69779;SDS011;57052;55.602;38.096;2023-06-10T12:35:58;2.83;;;1.08;;
69779;SDS011;57052;55.602;38.096;2023-06-10T12:38:25;2.75;;;0.82;;
69779;SDS011;57052;55.602;38.096;2023-06-10T12:41:00;2.38;;;0.95;;
69779;SDS011;57052;55.602;38.096;2023-06-10T12:43:27;3.08;;;0.98;;
69779;SDS011;57052;55.602;38.096;2023-06-10T12:45:53;3.65;;;1.00;;
69779;SDS011;57052;55.602;38.096;2023-06-10T12:48:20;4.40;;;1.30;;
69779;SDS011;57052;55.602;38.096;2023-06-10T12:50:52;2.65;;;1.05;;
69779;SDS011;57052;55.602;38.096;2023-06-10T12:53:22;2.47;;;1.00;;
69779;SDS011;57052;55.602;38.096;2023-06-10T12:55:49;1.75;;;0.82;;
69779;SDS011;57052;55.602;38.096;2023-06-10T12:58:16;2.88;;;0.90;;
69779;SDS011;57052;55.602;38.096;2023-06-10T13:00:42;4.25;;;1.10;;
69779;SDS011;57052;55.602;38.096;2023-06-10T13:03:08;2.92;;;1.10;;
69779;SDS011;57052;55.602;38.096;2023-06-10T13:05:35;2.08;;;1.02;;
69779;SDS011;57052;55.602;38.096;2023-06-10T13:08:05;2.05;;;1.02;;
69779;SDS011;57052;55.602;38.096;2023-06-10T13:10:32;2.45;;;1.00;;
69779;SDS011;57052;55.602;38.096;2023-06-10T13:13:00;2.47;;;0.90;;
69779;SDS011;57052;55.602;38.096;2023-06-10T13:15:27;1.98;;;0.90;;
69779;SDS011;57052;55.602;38.096;2023-06-10T13:17:53;1.45;;;0.73;;
69779;SDS011;57052;55.602;38.096;2023-06-10T13:20:19;2.63;;;0.80;;
69779;SDS011;57052;55.602;38.096;2023-06-10T13:22:45;2.42;;;0.95;;
69779;SDS011;57052;55.602;38.096;2023-06-10T13:25:12;2.25;;;0.90;;
69779;SDS011;57052;55.602;38.096;2023-06-10T13:27:38;2.45;;;0.93;;
69779;SDS011;57052;55.602;38.096;2023-06-10T13:30:05;3.30;;;1.13;;
69779;SDS011;57052;55.602;38.096;2023-06-10T13:32:32;4.32;;;1.30;;
69779;SDS011;57052;55.602;38.096;2023-06-10T13:34:58;2.83;;;1.10;;
69779;SDS011;57052;55.602;38.096;2023-06-10T13:37:24;2.60;;;1.17;;
69779;SDS011;57052;55.602;38.096;2023-06-10T13:39:49;2.03;;;0.90;;
69779;SDS011;57052;55.602;38.096;2023-06-10T13:42:19;2.65;;;1.10;;
69779;SDS011;57052;55.602;38.096;2023-06-10T13:44:46;3.08;;;1.10;;
69779;SDS011;57052;55.602;38.096;2023-06-10T13:47:13;1.30;;;0.98;;
69779;SDS011;57052;55.602;38.096;2023-06-10T13:49:40;2.30;;;1.30;;
69779;SDS011;57052;55.602;38.096;2023-06-10T13:52:06;3.97;;;1.27;;
69779;SDS011;57052;55.602;38.096;2023-06-10T13:54:32;3.63;;;1.50;;
69779;SDS011;57052;55.602;38.096;2023-06-10T13:56:58;3.38;;;1.40;;
69779;SDS011;57052;55.602;38.096;2023-06-10T13:59:25;3.90;;;1.30;;
69779;SDS011;57052;55.602;38.096;2023-06-10T14:01:51;4.55;;;1.60;;
69779;SDS011;57052;55.602;38.096;2023-06-10T14:04:16;1.73;;;1.10;;
69779;SDS011;57052;55.602;38.096;2023-06-10T14:06:42;2.67;;;1.08;;
69779;SDS011;57052;55.602;38.096;2023-06-10T14:09:08;3.85;;;1.30;;
69779;SDS011;57052;55.602;38.096;2023-06-10T14:11:34;2.88;;;1.25;;
69779;SDS011;57052;55.602;38.096;2023-06-10T14:14:00;2.25;;;1.15;;
69779;SDS011;57052;55.602;38.096;2023-06-10T14:16:26;3.33;;;1.35;;
69779;SDS011;57052;55.602;38.096;2023-06-10T14:18:53;2.47;;;1.20;;
69779;SDS011;57052;55.602;38.096;2023-06-10T14:21:18;1.20;;;0.90;;
69779;SDS011;57052;55.602;38.096;2023-06-10T14:23:44;1.70;;;1.15;;
69779;SDS011;57052;55.602;38.096;2023-06-10T14:26:11;2.00;;;1.00;;
69779;SDS011;57052;55.602;38.096;2023-06-10T14:28:37;4.25;;;0.93;;
69779;SDS011;57052;55.602;38.096;2023-06-10T14:31:02;3.67;;;1.02;;
69779;SDS011;57052;55.602;38.096;2023-06-10T14:33:28;2.63;;;1.05;;
69779;SDS011;57052;55.602;38.096;2023-06-10T14:35:54;2.47;;;1.00;;
69779;SDS011;57052;55.602;38.096;2023-06-10T14:38:20;2.10;;;0.95;;
69779;SDS011;57052;55.602;38.096;2023-06-10T14:40:46;2.63;;;1.20;;
69779;SDS011;57052;55.602;38.096;2023-06-10T14:43:11;3.78;;;1.20;;
69779;SDS011;57052;55.602;38.096;2023-06-10T14:45:38;3.03;;;1.60;;
69779;SDS011;57052;55.602;38.096;2023-06-10T14:48:05;2.80;;;0.98;;
69779;SDS011;57052;55.602;38.096;2023-06-10T14:50:31;1.88;;;1.00;;
69779;SDS011;57052;55.602;38.096;2023-06-10T14:52:58;2.13;;;1.00;;
69779;SDS011;57052;55.602;38.096;2023-06-10T14:55:24;2.20;;;1.00;;
69779;SDS011;57052;55.602;38.096;2023-06-10T14:57:49;3.30;;;1.00;;
69779;SDS011;57052;55.602;38.096;2023-06-10T15:00:15;1.90;;;1.00;;